Bowdon, Georgia
Current Conditions -  °F | °C
As of 11:15 PM on Sunday 25 Jan 2015 (Local Time) from KCTJ Reporting Station
Haze Haze  
Wind Chill: 41°   Ceiling: 200
Heat Index: 41°   Visibility: 1mi
Dew Point: 41°   Wind: 0mph
Humidity: 100%   Direction: NA
Pressure: 29.79"   Gusts: NA
Location:  33.54°N, 85.25°W
Report Text: KCTJ 260415Z AUTO 00000KT 1SM BR BKN002 BKN024 05/05 A2979 RMK AO2 VIS 3/4V2 1/2
Loading
Personal Weather Stations






























Interactive Weather Map New forecast layout! Learn more

10-Day Weather Forecast

Advertisements
Track Severe Weather on mobile